Time;durP1;ratioP1;P1;durP2;ratioP2;P2;SDS_P1;SDS_P2;PMS_P1;PMS_P2;Temp;Humidity;BMP_temperature;BMP_pressure;BME280_temperature;BME280_humidity;BME280_pressure;Samples;Min_cycle;Max_cycle;Signal;HPM_P1;HPM_P2
2022/03/05 00:00:36;;;;;;;28.92;26.38;;;;;;;;;;4977524;28;20188;-96
2022/03/05 00:03:04;;;;;;;28.17;25.90;;;;;;;;;;4976741;28;20235;-96
2022/03/05 00:05:31;;;;;;;28.00;25.50;;;;;;;;;;4977498;28;20188;-95
2022/03/05 00:08:01;;;;;;;28.20;25.58;;;;;;;;;;4976776;28;20199;-95
2022/03/05 00:10:30;;;;;;;28.52;25.83;;;;;;;;;;4977087;28;20585;-94
2022/03/05 00:12:58;;;;;;;28.95;26.38;;;;;;;;;;4976983;28;20226;-96
2022/03/05 00:15:28;;;;;;;30.05;27.30;;;;;;;;;;4976594;28;20209;-95
2022/03/05 00:17:59;;;;;;;29.58;26.77;;;;;;;;;;4976103;28;20232;-93
2022/03/05 00:20:29;;;;;;;29.90;27.23;;;;;;;;;;4976720;28;20203;-95
2022/03/05 00:22:58;;;;;;;30.52;27.65;;;;;;;;;;4976313;28;20204;-95
2022/03/05 00:25:28;;;;;;;30.02;27.40;;;;;;;;;;4976377;28;20531;-96
2022/03/05 00:27:58;;;;;;;29.73;26.85;;;;;;;;;;4976297;28;20638;-96
2022/03/05 00:30:27;;;;;;;28.58;25.88;;;;;;;;;;4976644;28;20207;-95
2022/03/05 00:32:58;;;;;;;29.83;26.88;;;;;;;;;;4976852;28;20211;-96
2022/03/05 00:35:28;;;;;;;29.88;27.27;;;;;;;;;;4976387;28;20200;-96
2022/03/05 00:37:57;;;;;;;30.60;27.77;;;;;;;;;;4959007;28;20223;-96
2022/03/05 00:40:26;;;;;;;29.33;26.58;;;;;;;;;;4959548;28;20203;-96
2022/03/05 00:42:55;;;;;;;30.58;27.30;;;;;;;;;;4976681;28;20217;-96
2022/03/05 00:45:25;;;;;;;28.52;26.05;;;;;;;;;;4976012;28;20196;-96
2022/03/05 00:47:54;;;;;;;30.05;27.13;;;;;;;;;;4976571;28;20198;-96
2022/03/05 00:50:23;;;;;;;30.33;27.48;;;;;;;;;;4975959;28;20258;-96
2022/03/05 00:52:52;;;;;;;29.50;26.35;;;;;;;;;;4976777;28;20724;-96
2022/03/05 00:55:21;;;;;;;29.20;26.58;;;;;;;;;;4976118;28;20202;-96
2022/03/05 00:57:50;;;;;;;29.25;26.33;;;;;;;;;;4976418;28;20242;-96
2022/03/05 01:00:20;;;;;;;31.98;28.75;;;;;;;;;;4976189;28;20266;-96
2022/03/05 01:02:51;;;;;;;29.33;26.38;;;;;;;;;;4976077;28;20297;-96
2022/03/05 01:05:22;;;;;;;29.27;26.50;;;;;;;;;;4976235;28;20202;-96
2022/03/05 01:07:55;;;;;;;30.42;27.50;;;;;;;;;;4975890;28;20188;-96
2022/03/05 01:10:24;;;;;;;33.75;27.83;;;;;;;;;;4958755;28;20207;-96
2022/03/05 01:12:53;;;;;;;33.22;29.63;;;;;;;;;;4959313;28;20278;-96
2022/03/05 01:15:24;;;;;;;29.35;26.38;;;;;;;;;;4958324;28;20210;-96
2022/03/05 01:17:54;;;;;;;30.40;27.42;;;;;;;;;;4959054;28;20259;-96
2022/03/05 01:20:24;;;;;;;30.58;27.92;;;;;;;;;;4977555;28;20191;-96
2022/03/05 01:22:56;;;;;;;28.05;25.45;;;;;;;;;;4976326;28;20203;-96
2022/03/05 01:25:26;;;;;;;29.83;26.92;;;;;;;;;;4976357;28;20230;-96
2022/03/05 01:27:55;;;;;;;28.40;25.70;;;;;;;;;;4976110;28;20426;-96
2022/03/05 01:30:26;;;;;;;28.70;25.90;;;;;;;;;;4960445;28;20214;-96
2022/03/05 01:32:55;;;;;;;30.15;27.20;;;;;;;;;;4979900;28;20200;-96
2022/03/05 01:35:24;;;;;;;28.02;25.45;;;;;;;;;;4976974;28;20196;-96
2022/03/05 01:37:56;;;;;;;31.30;28.00;;;;;;;;;;4978640;28;20594;-96
2022/03/05 01:40:25;;;;;;;31.48;27.63;;;;;;;;;;4977752;28;20207;-96
2022/03/05 01:42:56;;;;;;;30.58;27.15;;;;;;;;;;4976871;28;20730;-96
2022/03/05 01:45:27;;;;;;;32.00;29.08;;;;;;;;;;4977355;28;20188;-96
2022/03/05 01:47:56;;;;;;;31.88;28.83;;;;;;;;;;4962370;28;20294;-96
2022/03/05 01:50:25;;;;;;;29.85;26.75;;;;;;;;;;4979644;28;20206;-95
2022/03/05 01:52:56;;;;;;;29.92;27.30;;;;;;;;;;4960768;28;20278;-96
2022/03/05 01:55:27;;;;;;;31.67;28.55;;;;;;;;;;4979396;28;20288;-96
2022/03/05 01:57:59;;;;;;;31.00;27.73;;;;;;;;;;4980211;28;20258;-96
2022/03/05 02:00:28;;;;;;;30.73;27.83;;;;;;;;;;4977187;28;20721;-96
2022/03/05 02:02:57;;;;;;;30.30;27.27;;;;;;;;;;4975799;28;20238;-96
2022/03/05 02:05:26;;;;;;;31.25;28.08;;;;;;;;;;4959236;28;20625;-96
2022/03/05 02:07:58;;;;;;;32.67;29.17;;;;;;;;;;4977285;28;20199;-96
2022/03/05 02:10:27;;;;;;;32.17;29.00;;;;;;;;;;4977951;28;20207;-96
2022/03/05 02:12:56;;;;;;;29.88;26.77;;;;;;;;;;4977956;28;20234;-96
2022/03/05 02:15:25;;;;;;;34.25;30.63;;;;;;;;;;4979782;28;20195;-96
2022/03/05 02:17:56;;;;;;;30.67;27.67;;;;;;;;;;4981635;28;20227;-96
2022/03/05 02:20:25;;;;;;;32.30;29.00;;;;;;;;;;4982019;28;20271;-96
2022/03/05 02:22:56;;;;;;;33.30;29.73;;;;;;;;;;4982737;28;20208;-96
2022/03/05 02:25:25;;;;;;;32.88;29.02;;;;;;;;;;4983634;28;20270;-96
2022/03/05 02:27:54;;;;;;;37.17;30.27;;;;;;;;;;4986336;28;20211;-96
2022/03/05 02:30:23;;;;;;;29.38;26.63;;;;;;;;;;4969776;28;20207;-96
2022/03/05 02:32:52;;;;;;;32.22;28.60;;;;;;;;;;4985664;28;20196;-96
2022/03/05 02:35:21;;;;;;;33.30;28.95;;;;;;;;;;4985403;28;20638;-96
2022/03/05 02:37:50;;;;;;;31.95;28.35;;;;;;;;;;4967154;28;20325;-96
2022/03/05 02:40:24;;;;;;;32.58;29.45;;;;;;;;;;4984385;28;20197;-96
2022/03/05 02:42:53;;;;;;;31.58;28.35;;;;;;;;;;4984342;28;20665;-96
2022/03/05 02:45:23;;;;;;;33.50;28.30;;;;;;;;;;4987446;28;20554;-96
2022/03/05 02:47:53;;;;;;;31.33;27.90;;;;;;;;;;4986344;28;20199;-96
2022/03/05 02:50:22;;;;;;;33.60;29.83;;;;;;;;;;4985807;28;20211;-96
2022/03/05 02:52:54;;;;;;;31.98;28.00;;;;;;;;;;4985903;28;20196;-96
2022/03/05 02:55:26;;;;;;;31.80;28.63;;;;;;;;;;4984545;28;20207;-96
2022/03/05 02:57:57;;;;;;;32.63;28.05;;;;;;;;;;4985612;28;20251;-96
2022/03/05 03:00:27;;;;;;;29.88;26.92;;;;;;;;;;4967504;28;20196;-96
2022/03/05 03:02:57;;;;;;;29.83;26.83;;;;;;;;;;4967849;28;20262;-96
2022/03/05 03:05:26;;;;;;;31.65;28.35;;;;;;;;;;4985887;28;20195;-96
2022/03/05 03:07:55;;;;;;;32.92;29.25;;;;;;;;;;4984448;28;20195;-96
2022/03/05 03:10:26;;;;;;;31.65;28.35;;;;;;;;;;4985345;28;20207;-96
2022/03/05 03:12:57;;;;;;;33.83;27.73;;;;;;;;;;4985656;28;20562;-96
2022/03/05 03:15:26;;;;;;;30.30;27.33;;;;;;;;;;4987783;28;20215;-96
2022/03/05 03:17:56;;;;;;;36.33;30.67;;;;;;;;;;4987318;28;20219;-96
2022/03/05 03:20:28;;;;;;;32.05;28.67;;;;;;;;;;4968123;28;20203;-96
2022/03/05 03:22:58;;;;;;;34.78;29.00;;;;;;;;;;4985445;28;20227;-96
2022/03/05 03:25:31;;;;;;;32.97;29.55;;;;;;;;;;4983973;28;20188;-96
2022/03/05 03:28:01;;;;;;;33.40;28.88;;;;;;;;;;4983833;28;20195;-96
2022/03/05 03:30:30;;;;;;;30.73;27.85;;;;;;;;;;4967151;28;20207;-96
2022/03/05 03:33:00;;;;;;;31.98;28.48;;;;;;;;;;4983694;28;20211;-96
2022/03/05 03:35:29;;;;;;;33.10;29.60;;;;;;;;;;4980630;28;20188;-96
2022/03/05 03:37:57;;;;;;;32.25;29.05;;;;;;;;;;4982212;28;20244;-96
2022/03/05 03:40:27;;;;;;;35.28;28.00;;;;;;;;;;4977493;28;20211;-96
2022/03/05 03:42:56;;;;;;;32.53;29.02;;;;;;;;;;4977731;28;20719;-96
2022/03/05 03:45:26;;;;;;;32.38;27.50;;;;;;;;;;4977472;28;20195;-96
2022/03/05 03:47:55;;;;;;;36.05;27.85;;;;;;;;;;4977088;28;20215;-96
2022/03/05 03:50:25;;;;;;;32.00;28.88;;;;;;;;;;4977044;28;20594;-96
2022/03/05 03:52:54;;;;;;;32.28;29.00;;;;;;;;;;4977487;28;20275;-96
2022/03/05 03:55:23;;;;;;;31.17;28.02;;;;;;;;;;4976539;28;20214;-96
2022/03/05 03:57:53;;;;;;;31.25;27.88;;;;;;;;;;4976767;28;20696;-96
2022/03/05 04:00:24;;;;;;;29.83;27.10;;;;;;;;;;4976817;28;20662;-96
2022/03/05 04:02:53;;;;;;;30.48;27.40;;;;;;;;;;4960015;28;20231;-96
2022/03/05 04:05:23;;;;;;;31.90;28.67;;;;;;;;;;4977020;28;20275;-96
2022/03/05 04:10:38;;;;;;;33.55;30.17;;;;;;;;;;4977492;28;20198;-96
2022/03/05 04:13:07;;;;;;;29.80;26.90;;;;;;;;;;4976706;28;20255;-96
2022/03/05 04:15:38;;;;;;;31.45;28.25;;;;;;;;;;4977179;28;20195;-96
2022/03/05 04:18:08;;;;;;;32.17;28.60;;;;;;;;;;4976496;28;20259;-96
2022/03/05 04:20:37;;;;;;;34.13;29.60;;;;;;;;;;4959263;28;20238;-96
2022/03/05 04:23:06;;;;;;;35.25;29.88;;;;;;;;;;4976708;28;20558;-96
2022/03/05 04:25:37;;;;;;;32.92;29.73;;;;;;;;;;4976522;28;20192;-96
2022/03/05 04:28:07;;;;;;;32.47;29.13;;;;;;;;;;4959151;28;20657;-96
2022/03/05 04:30:38;;;;;;;33.80;30.45;;;;;;;;;;4976891;28;20208;-96
2022/03/05 04:33:07;;;;;;;31.17;28.42;;;;;;;;;;4976525;28;20552;-96
2022/03/05 04:35:36;;;;;;;33.65;29.17;;;;;;;;;;4976522;28;20192;-96
2022/03/05 04:38:05;;;;;;;36.97;30.23;;;;;;;;;;4977185;28;20238;-95
2022/03/05 04:40:35;;;;;;;31.08;27.08;;;;;;;;;;4977616;28;20227;-95
2022/03/05 04:43:04;;;;;;;32.22;29.13;;;;;;;;;;4976526;28;20245;-96
2022/03/05 04:45:35;;;;;;;33.17;29.75;;;;;;;;;;4975486;28;20258;-96
2022/03/05 04:48:07;;;;;;;33.17;28.70;;;;;;;;;;4976429;28;20203;-96
2022/03/05 04:50:36;;;;;;;32.67;29.30;;;;;;;;;;4975907;28;20198;-95
2022/03/05 04:53:04;;;;;;;34.67;29.85;;;;;;;;;;4975660;28;20203;-96
2022/03/05 04:55:33;;;;;;;32.58;28.80;;;;;;;;;;4976246;28;20547;-96
2022/03/05 04:58:02;;;;;;;31.90;27.30;;;;;;;;;;4958818;28;20596;-96
2022/03/05 05:00:31;;;;;;;31.45;28.42;;;;;;;;;;4975848;28;20211;-96
2022/03/05 05:03:00;;;;;;;31.92;28.58;;;;;;;;;;4975933;28;20231;-96
2022/03/05 05:05:33;;;;;;;35.90;28.30;;;;;;;;;;4975881;28;20207;-96
2022/03/05 05:08:03;;;;;;;30.35;27.05;;;;;;;;;;4976031;28;20234;-96
2022/03/05 05:10:32;;;;;;;32.00;28.63;;;;;;;;;;4975765;28;20199;-96
2022/03/05 05:13:00;;;;;;;32.97;29.38;;;;;;;;;;4975764;28;20234;-96
2022/03/05 05:15:29;;;;;;;30.67;27.65;;;;;;;;;;4975685;28;20231;-96
2022/03/05 05:17:59;;;;;;;32.33;28.73;;;;;;;;;;4975525;28;20283;-96
2022/03/05 05:20:29;;;;;;;32.63;29.25;;;;;;;;;;4975607;28;20231;-96
2022/03/05 05:23:02;;;;;;;32.35;28.90;;;;;;;;;;4975643;28;20210;-96
2022/03/05 05:25:31;;;;;;;30.75;27.30;;;;;;;;;;4974014;28;20784;-96
2022/03/05 05:28:00;;;;;;;30.60;27.38;;;;;;;;;;4958328;28;20199;-96
2022/03/05 05:30:30;;;;;;;32.65;28.90;;;;;;;;;;4975474;28;20203;-96
2022/03/05 05:32:59;;;;;;;35.80;29.45;;;;;;;;;;4975484;28;20195;-95
2022/03/05 05:35:28;;;;;;;36.63;29.50;;;;;;;;;;4975208;28;20319;-96
2022/03/05 05:37:57;;;;;;;35.10;31.30;;;;;;;;;;4958012;28;20209;-96
2022/03/05 05:40:29;;;;;;;34.28;30.20;;;;;;;;;;4958131;28;20581;-96
2022/03/05 05:43:00;;;;;;;34.33;30.33;;;;;;;;;;4958271;28;20298;-96
2022/03/05 05:45:29;;;;;;;33.17;29.70;;;;;;;;;;4974856;28;20301;-95
2022/03/05 05:47:59;;;;;;;32.47;29.25;;;;;;;;;;4975443;28;20278;-96
2022/03/05 05:50:29;;;;;;;36.95;29.83;;;;;;;;;;4974990;28;20207;-96
2022/03/05 05:52:57;;;;;;;34.95;31.23;;;;;;;;;;4975378;28;20191;-96
2022/03/05 05:55:29;;;;;;;31.88;28.48;;;;;;;;;;4975184;28;20283;-96
2022/03/05 05:58:00;;;;;;;31.42;28.13;;;;;;;;;;4975147;28;20646;-96
2022/03/05 06:00:29;;;;;;;32.92;29.48;;;;;;;;;;4976443;28;20237;-95
2022/03/05 06:03:01;;;;;;;31.60;28.70;;;;;;;;;;4961945;28;20289;-95
2022/03/05 06:05:29;;;;;;;32.25;28.75;;;;;;;;;;4979079;28;20608;-96
2022/03/05 06:08:00;;;;;;;33.30;29.75;;;;;;;;;;4961869;28;20203;-89
2022/03/05 06:10:32;;;;;;;35.80;30.25;;;;;;;;;;4978800;28;20191;-88
2022/03/05 06:13:01;;;;;;;35.63;31.05;;;;;;;;;;4978749;28;20223;-89
2022/03/05 06:15:30;;;;;;;34.92;29.83;;;;;;;;;;4978932;28;20199;-95
2022/03/05 06:17:59;;;;;;;33.97;30.33;;;;;;;;;;4979018;28;20196;-95
2022/03/05 06:20:28;;;;;;;32.60;28.50;;;;;;;;;;4979384;28;20254;-88
2022/03/05 06:22:57;;;;;;;37.35;30.75;;;;;;;;;;4979198;28;20198;-88
2022/03/05 06:25:26;;;;;;;36.70;32.67;;;;;;;;;;4978813;28;20192;-88
2022/03/05 06:27:57;;;;;;;38.35;29.80;;;;;;;;;;4978438;28;20668;-88
2022/03/05 06:30:26;;;;;;;33.67;29.55;;;;;;;;;;4978783;28;20199;-88
2022/03/05 06:32:55;;;;;;;34.65;29.10;;;;;;;;;;4978547;28;20200;-88
2022/03/05 06:35:25;;;;;;;33.17;29.45;;;;;;;;;;4978620;28;20242;-88
2022/03/05 06:37:55;;;;;;;36.15;29.90;;;;;;;;;;4978201;28;20234;-87
2022/03/05 06:40:24;;;;;;;38.17;30.95;;;;;;;;;;4978515;28;20223;-88
2022/03/05 06:42:54;;;;;;;35.47;31.33;;;;;;;;;;4978266;28;20545;-88
2022/03/05 06:45:26;;;;;;;32.90;29.60;;;;;;;;;;4977424;28;20299;-88
2022/03/05 06:47:55;;;;;;;33.13;29.75;;;;;;;;;;4977536;28;20210;-88
2022/03/05 06:50:24;;;;;;;35.45;30.50;;;;;;;;;;4978154;28;20199;-89
2022/03/05 06:52:53;;;;;;;31.85;28.48;;;;;;;;;;4977936;28;20290;-88
2022/03/05 06:55:23;;;;;;;34.22;30.27;;;;;;;;;;4978300;28;20196;-89
2022/03/05 06:57:52;;;;;;;34.00;28.80;;;;;;;;;;4977995;28;20203;-90
2022/03/05 07:00:21;;;;;;;37.17;29.38;;;;;;;;;;4978037;28;20235;-90
2022/03/05 07:02:52;;;;;;;32.42;28.27;;;;;;;;;;4977735;28;20231;-90
2022/03/05 07:05:22;;;;;;;33.40;27.90;;;;;;;;;;4978140;28;20192;-90
2022/03/05 07:07:54;;;;;;;37.53;31.05;;;;;;;;;;4977754;28;20203;-90
2022/03/05 07:10:23;;;;;;;34.95;31.25;;;;;;;;;;4978354;28;20191;-90
2022/03/05 07:12:50;;;;;;;35.33;31.15;;;;;;;;;;4977282;28;20232;-91
2022/03/05 07:15:18;;;;;;;36.85;31.08;;;;;;;;;;4978921;28;20191;-90
2022/03/05 07:17:51;;;;;;;34.65;29.88;;;;;;;;;;4961199;28;20646;-90
2022/03/05 07:20:19;;;;;;;36.45;29.60;;;;;;;;;;4977696;28;20685;-91
2022/03/05 07:22:46;;;;;;;34.13;30.17;;;;;;;;;;4978170;28;20196;-90
2022/03/05 07:25:14;;;;;;;35.33;31.63;;;;;;;;;;4977489;28;20195;-90
2022/03/05 07:27:42;;;;;;;34.75;31.10;;;;;;;;;;4977941;28;20196;-92
2022/03/05 07:30:10;;;;;;;33.72;29.70;;;;;;;;;;4977508;28;20220;-91
2022/03/05 07:32:38;;;;;;;31.65;28.25;;;;;;;;;;4977407;28;20199;-92
2022/03/05 07:35:07;;;;;;;39.55;31.75;;;;;;;;;;4977608;28;20203;-91
2022/03/05 07:37:35;;;;;;;32.33;29.17;;;;;;;;;;4979139;28;20554;-93
2022/03/05 07:40:02;;;;;;;33.00;29.42;;;;;;;;;;4977382;28;20242;-93
2022/03/05 07:42:30;;;;;;;38.63;32.17;;;;;;;;;;4977769;28;20669;-93
2022/03/05 07:44:57;;;;;;;32.00;28.90;;;;;;;;;;4977658;28;20195;-90
2022/03/05 07:47:24;;;;;;;32.33;28.83;;;;;;;;;;4977419;28;20203;-91
2022/03/05 07:49:52;;;;;;;33.55;29.95;;;;;;;;;;4977225;28;20191;-92
2022/03/05 07:52:21;;;;;;;35.88;30.63;;;;;;;;;;4977729;28;20194;-94
2022/03/05 07:54:48;;;;;;;36.47;31.65;;;;;;;;;;4977478;28;20621;-91
2022/03/05 07:57:15;;;;;;;34.33;29.42;;;;;;;;;;4977076;28;20531;-93
2022/03/05 07:59:43;;;;;;;38.30;32.55;;;;;;;;;;4977285;28;20223;-92
2022/03/05 08:02:11;;;;;;;34.28;30.15;;;;;;;;;;4977074;28;20245;-93
2022/03/05 08:04:38;;;;;;;34.00;28.58;;;;;;;;;;4977068;28;20246;-95
2022/03/05 08:07:07;;;;;;;34.50;30.65;;;;;;;;;;4960244;28;20673;-92
2022/03/05 08:09:37;;;;;;;27.48;24.65;;;;;;;;;;4976933;28;20187;-94
2022/03/05 08:12:04;;;;;;;37.75;30.60;;;;;;;;;;4976961;28;20258;-93
2022/03/05 08:14:32;;;;;;;32.35;29.25;;;;;;;;;;4976988;28;20891;-93
2022/03/05 08:16:59;;;;;;;33.40;29.90;;;;;;;;;;4977028;28;20199;-93
2022/03/05 08:19:27;;;;;;;30.63;27.52;;;;;;;;;;4976866;28;20569;-93
2022/03/05 08:21:54;;;;;;;24.17;22.35;;;;;;;;;;4976840;28;20195;-94
2022/03/05 08:24:21;;;;;;;34.08;30.40;;;;;;;;;;4976856;28;20187;-93
2022/03/05 08:26:50;;;;;;;31.50;28.52;;;;;;;;;;4976839;28;20191;-86
2022/03/05 08:29:18;;;;;;;36.00;32.17;;;;;;;;;;4976586;28;20673;-91
2022/03/05 08:31:45;;;;;;;33.65;30.00;;;;;;;;;;4982705;28;20203;-93
2022/03/05 08:34:12;;;;;;;34.60;30.90;;;;;;;;;;4986882;28;20199;-94
2022/03/05 08:36:40;;;;;;;35.97;32.28;;;;;;;;;;4962695;28;20570;-96
2022/03/05 08:39:07;;;;;;;34.58;30.85;;;;;;;;;;4981601;28;20660;-90
2022/03/05 08:41:35;;;;;;;35.50;28.92;;;;;;;;;;4985151;28;20192;-95
2022/03/05 08:44:04;;;;;;;33.22;29.95;;;;;;;;;;4960834;28;20219;-94
2022/03/05 08:46:32;;;;;;;34.83;31.08;;;;;;;;;;4977135;28;20203;-94
2022/03/05 08:48:59;;;;;;;36.42;32.10;;;;;;;;;;4959415;28;20210;-90
2022/03/05 08:51:27;;;;;;;36.95;32.33;;;;;;;;;;4976326;28;20198;-91
2022/03/05 08:53:54;;;;;;;34.40;31.05;;;;;;;;;;4978301;28;20634;-96
2022/03/05 08:56:21;;;;;;;33.35;30.00;;;;;;;;;;4981214;28;20597;-90
2022/03/05 08:58:49;;;;;;;35.42;31.83;;;;;;;;;;4977944;28;20196;-90
2022/03/05 09:01:18;;;;;;;34.75;31.05;;;;;;;;;;4975854;28;20230;-88
2022/03/05 09:03:45;;;;;;;33.75;30.55;;;;;;;;;;4977205;28;20196;-94
2022/03/05 09:06:13;;;;;;;36.20;32.35;;;;;;;;;;4977866;28;20627;-88
2022/03/05 09:08:41;;;;;;;33.20;29.73;;;;;;;;;;4962118;28;20227;-95
2022/03/05 09:11:14;;;;;;;33.53;30.10;;;;;;;;;;4997401;23;20438;-96
2022/03/05 09:13:41;;;;;;;33.53;27.38;;;;;;;;;;5033350;23;20695;-91
2022/03/05 09:16:09;;;;;;;28.00;25.48;;;;;;;;;;5014805;28;20194;-88
2022/03/05 09:18:37;;;;;;;30.13;27.40;;;;;;;;;;5014738;28;20260;-89
2022/03/05 09:21:05;;;;;;;36.00;32.53;;;;;;;;;;5015242;28;20294;-88
2022/03/05 09:23:32;;;;;;;35.08;31.73;;;;;;;;;;5014990;28;20237;-88
2022/03/05 09:25:59;;;;;;;30.33;27.48;;;;;;;;;;5015211;28;20270;-93
2022/03/05 09:28:27;;;;;;;36.22;32.63;;;;;;;;;;5017500;28;20187;-91
2022/03/05 09:30:54;;;;;;;34.80;31.40;;;;;;;;;;5015043;28;20202;-92
2022/03/05 09:33:22;;;;;;;35.95;32.55;;;;;;;;;;5016100;28;20209;-92
2022/03/05 09:35:51;;;;;;;35.53;32.08;;;;;;;;;;5014629;28;20592;-93
2022/03/05 09:38:19;;;;;;;37.20;33.80;;;;;;;;;;5018381;28;20190;-94
2022/03/05 09:40:46;;;;;;;36.17;32.70;;;;;;;;;;5015972;28;20214;-93
2022/03/05 09:43:14;;;;;;;33.25;30.23;;;;;;;;;;5015050;28;20198;-93
2022/03/05 09:45:47;;;;;;;32.35;29.30;;;;;;;;;;5015363;28;20190;-95
2022/03/05 09:48:17;;;;;;;36.92;33.03;;;;;;;;;;4998524;28;20208;-91
2022/03/05 09:50:44;;;;;;;36.40;33.00;;;;;;;;;;4998967;28;20190;-94
2022/03/05 09:53:13;;;;;;;33.95;30.65;;;;;;;;;;5015649;28;20197;-93
2022/03/05 09:55:40;;;;;;;35.85;32.50;;;;;;;;;;5014878;28;20240;-93
2022/03/05 09:58:08;;;;;;;34.83;31.63;;;;;;;;;;5014528;28;20583;-94
2022/03/05 10:00:35;;;;;;;32.85;29.65;;;;;;;;;;4997355;28;20230;-96
2022/03/05 10:03:06;;;;;;;32.90;29.40;;;;;;;;;;5014347;28;20190;-95
2022/03/05 10:05:36;;;;;;;33.50;30.50;;;;;;;;;;5014413;28;20194;-95
2022/03/05 10:08:08;;;;;;;32.53;29.35;;;;;;;;;;5014704;28;20190;-95
2022/03/05 10:10:59;;;;;;;33.75;30.45;;;;;;;;;;5014625;28;20229;-94
2022/03/05 10:13:28;;;;;;;33.70;30.40;;;;;;;;;;5014710;28;20229;-94
2022/03/05 10:15:57;;;;;;;34.05;30.80;;;;;;;;;;5014871;28;20194;-94
2022/03/05 10:18:28;;;;;;;27.95;25.60;;;;;;;;;;5014535;28;20214;-95
2022/03/05 10:20:55;;;;;;;32.58;29.65;;;;;;;;;;5014056;28;20703;-91
2022/03/05 10:23:24;;;;;;;34.15;30.85;;;;;;;;;;5014612;28;20190;-93
2022/03/05 10:25:54;;;;;;;31.98;29.08;;;;;;;;;;5015037;28;20202;-95
2022/03/05 10:28:22;;;;;;;34.10;31.00;;;;;;;;;;5014297;28;20656;-93
2022/03/05 10:30:50;;;;;;;34.70;31.60;;;;;;;;;;5014582;28;20191;-95
2022/03/05 10:33:32;;;;;;;31.98;28.92;;;;;;;;;;5014489;28;20194;-95
2022/03/05 10:36:00;;;;;;;36.17;32.55;;;;;;;;;;5014730;28;20547;-95
2022/03/05 10:38:49;;;;;;;31.88;28.83;;;;;;;;;;5018239;28;20217;-91
2022/03/05 10:41:19;;;;;;;32.90;29.83;;;;;;;;;;5007377;28;20233;-92
2022/03/05 10:43:47;;;;;;;33.63;30.73;;;;;;;;;;5013921;28;20660;-93
2022/03/05 10:46:14;;;;;;;33.17;30.25;;;;;;;;;;5014650;28;20195;-92
2022/03/05 10:48:42;;;;;;;31.20;28.42;;;;;;;;;;5017607;28;20190;-93
2022/03/05 10:51:13;;;;;;;32.55;29.65;;;;;;;;;;5017735;28;20271;-93
2022/03/05 10:53:42;;;;;;;32.17;29.27;;;;;;;;;;5017496;28;20545;-93
2022/03/05 10:56:27;;;;;;;34.85;31.52;;;;;;;;;;5017886;28;20536;-93
2022/03/05 10:58:58;;;;;;;32.38;29.38;;;;;;;;;;5018636;28;20194;-94
2022/03/05 11:01:25;;;;;;;32.20;29.25;;;;;;;;;;5017691;28;20231;-95
2022/03/05 11:03:53;;;;;;;33.20;30.17;;;;;;;;;;5018559;28;20190;-92
2022/03/05 11:06:21;;;;;;;30.10;27.38;;;;;;;;;;5000518;28;20206;-94
2022/03/05 11:08:48;;;;;;;33.35;30.30;;;;;;;;;;5017500;28;20195;-94
2022/03/05 11:11:16;;;;;;;33.47;30.30;;;;;;;;;;5017478;28;20218;-93
2022/03/05 11:13:45;;;;;;;33.97;30.80;;;;;;;;;;5016643;28;20241;-94
2022/03/05 11:16:13;;;;;;;36.15;32.67;;;;;;;;;;5016990;28;20655;-93
2022/03/05 11:18:41;;;;;;;33.90;30.75;;;;;;;;;;5016971;28;20199;-92
2022/03/05 11:21:10;;;;;;;32.45;29.58;;;;;;;;;;5016923;28;20273;-93
2022/03/05 11:23:39;;;;;;;33.95;30.75;;;;;;;;;;5016913;28;20210;-93
2022/03/05 11:26:08;;;;;;;31.25;28.33;;;;;;;;;;5016766;28;20282;-92
2022/03/05 11:28:36;;;;;;;32.28;29.35;;;;;;;;;;5017660;28;20198;-92
2022/03/05 11:31:16;;;;;;;32.83;29.83;;;;;;;;;;5016794;28;20198;-93
2022/03/05 11:33:45;;;;;;;32.42;29.42;;;;;;;;;;5017243;28;20631;-93
2022/03/05 11:36:26;;;;;;;32.80;29.90;;;;;;;;;;5017017;28;20206;-93
2022/03/05 11:39:07;;;;;;;30.23;27.63;;;;;;;;;;5017056;28;20202;-93
2022/03/05 11:41:35;;;;;;;32.33;29.42;;;;;;;;;;5017258;28;20240;-94
2022/03/05 11:44:13;;;;;;;33.70;30.48;;;;;;;;;;5016901;28;20194;-93
2022/03/05 11:46:42;;;;;;;33.22;30.42;;;;;;;;;;5016319;28;20241;-93
2022/03/05 11:49:10;;;;;;;33.83;30.77;;;;;;;;;;5016750;28;20194;-92
2022/03/05 11:51:53;;;;;;;34.03;30.92;;;;;;;;;;5016543;28;20198;-92
2022/03/05 11:54:20;;;;;;;32.95;30.38;;;;;;;;;;5016452;28;20191;-94
2022/03/05 11:57:03;;;;;;;33.22;30.27;;;;;;;;;;5016555;28;20197;-94
2022/03/05 11:59:31;;;;;;;33.13;30.30;;;;;;;;;;5013178;28;20238;-96
2022/03/05 12:02:00;;;;;;;35.50;32.35;;;;;;;;;;4998447;28;20240;-93
2022/03/05 12:04:28;;;;;;;32.25;29.40;;;;;;;;;;5017104;28;20238;-93
2022/03/05 12:07:00;;;;;;;34.47;31.38;;;;;;;;;;5016250;28;20222;-91
2022/03/05 12:09:37;;;;;;;33.63;30.65;;;;;;;;;;5016571;28;20194;-92
2022/03/05 12:12:05;;;;;;;34.45;31.58;;;;;;;;;;5016740;28;20225;-89
2022/03/05 12:14:51;;;;;;;33.85;30.92;;;;;;;;;;5015997;28;20296;-90
2022/03/05 12:17:24;;;;;;;35.03;31.65;;;;;;;;;;5019025;22;20635;-91
2022/03/05 12:19:51;;;;;;;35.08;31.60;;;;;;;;;;4997060;28;20241;-90
2022/03/05 12:22:19;;;;;;;34.28;31.15;;;;;;;;;;4998215;28;20692;-91
2022/03/05 12:27:30;;;;;;;33.90;30.85;;;;;;;;;;4935626;28;20552;-84
2022/03/05 12:29:57;;;;;;;35.13;32.13;;;;;;;;;;4920249;29;20232;-85
2022/03/05 12:32:31;;;;;;;35.17;32.10;;;;;;;;;;4935578;29;20212;-84
2022/03/05 12:35:08;;;;;;;36.65;33.25;;;;;;;;;;4935295;29;20228;-84
2022/03/05 12:37:36;;;;;;;36.80;33.72;;;;;;;;;;4934563;29;20204;-84
2022/03/05 12:40:04;;;;;;;34.35;31.40;;;;;;;;;;4934727;29;20212;-84
2022/03/05 12:42:42;;;;;;;37.17;33.58;;;;;;;;;;4934680;29;20247;-84
2022/03/05 12:45:14;;;;;;;36.95;33.65;;;;;;;;;;4934613;29;20197;-84
2022/03/05 12:47:43;;;;;;;35.92;32.70;;;;;;;;;;4934611;29;20694;-84
2022/03/05 12:50:36;;;;;;;35.95;32.92;;;;;;;;;;4934618;29;20643;-84
2022/03/05 12:53:04;;;;;;;36.20;32.90;;;;;;;;;;4921238;29;20766;-84
2022/03/05 12:55:33;;;;;;;37.50;34.33;;;;;;;;;;4918448;29;20205;-83
2022/03/05 12:58:11;;;;;;;36.63;33.33;;;;;;;;;;4956602;28;20650;-84
2022/03/05 13:00:38;;;;;;;36.42;33.42;;;;;;;;;;4994494;28;20464;-84
2022/03/05 13:03:08;;;;;;;35.70;32.60;;;;;;;;;;4994600;28;20221;-84
2022/03/05 13:05:35;;;;;;;34.07;31.17;;;;;;;;;;4994090;28;20449;-84
2022/03/05 13:08:03;;;;;;;35.90;32.93;;;;;;;;;;4994588;28;20442;-83
2022/03/05 13:10:30;;;;;;;35.83;32.80;;;;;;;;;;4993438;28;20478;-84
2022/03/05 13:12:57;;;;;;;35.22;32.08;;;;;;;;;;4994026;28;20188;-83
2022/03/05 13:15:26;;;;;;;34.10;31.30;;;;;;;;;;4994491;28;20641;-83
2022/03/05 13:17:53;;;;;;;34.22;31.30;;;;;;;;;;4994639;28;20511;-85
2022/03/05 13:20:22;;;;;;;35.53;32.58;;;;;;;;;;4994244;28;20198;-85
2022/03/05 13:22:50;;;;;;;36.97;33.97;;;;;;;;;;4994444;28;20191;-85
2022/03/05 13:25:17;;;;;;;34.45;31.48;;;;;;;;;;4994059;28;20286;-85
2022/03/05 13:27:45;;;;;;;35.72;32.50;;;;;;;;;;4994312;28;20199;-85
2022/03/05 13:30:13;;;;;;;37.58;34.28;;;;;;;;;;4994863;28;20187;-84
2022/03/05 13:32:44;;;;;;;34.50;31.60;;;;;;;;;;4994924;28;20199;-90
2022/03/05 13:35:11;;;;;;;34.30;31.40;;;;;;;;;;4994707;28;20260;-84
2022/03/05 13:37:40;;;;;;;35.90;32.90;;;;;;;;;;4994092;28;20500;-84
2022/03/05 13:40:10;;;;;;;36.30;33.10;;;;;;;;;;4994364;28;20191;-85
2022/03/05 13:42:39;;;;;;;35.95;32.70;;;;;;;;;;4994018;28;20506;-86
2022/03/05 13:45:07;;;;;;;35.58;32.33;;;;;;;;;;4993770;28;20194;-82
2022/03/05 13:47:40;;;;;;;36.80;33.70;;;;;;;;;;4993419;28;20896;-82
2022/03/05 13:50:08;;;;;;;33.87;30.87;;;;;;;;;;4993374;28;20417;-82
2022/03/05 13:52:36;;;;;;;34.53;31.43;;;;;;;;;;4993430;28;20463;-82
2022/03/05 13:55:09;;;;;;;36.45;33.33;;;;;;;;;;4993355;28;20429;-82
2022/03/05 13:57:37;;;;;;;35.85;32.75;;;;;;;;;;4993837;28;20203;-82
2022/03/05 14:00:09;;;;;;;35.67;32.67;;;;;;;;;;4993324;28;20187;-82
2022/03/05 14:02:36;;;;;;;34.88;32.00;;;;;;;;;;4994426;28;20489;-82
2022/03/05 14:05:07;;;;;;;36.15;32.95;;;;;;;;;;4993107;28;20198;-86
2022/03/05 14:07:38;;;;;;;36.30;33.30;;;;;;;;;;4993602;28;20227;-82
2022/03/05 14:10:06;;;;;;;35.27;32.07;;;;;;;;;;4993545;28;20446;-82
2022/03/05 14:12:36;;;;;;;35.40;32.30;;;;;;;;;;4993447;28;20421;-83
2022/03/05 14:15:04;;;;;;;33.45;30.75;;;;;;;;;;4993644;28;20451;-83
2022/03/05 14:17:33;;;;;;;35.43;32.40;;;;;;;;;;4993221;28;20727;-83
2022/03/05 14:20:05;;;;;;;37.57;34.40;;;;;;;;;;4993185;28;20428;-83
2022/03/05 14:22:35;;;;;;;35.38;32.53;;;;;;;;;;4996295;28;20520;-82
2022/03/05 14:25:02;;;;;;;35.47;32.60;;;;;;;;;;4997204;28;20234;-83
2022/03/05 14:27:30;;;;;;;35.07;31.97;;;;;;;;;;4997064;28;20431;-83
2022/03/05 14:29:58;;;;;;;35.10;32.30;;;;;;;;;;4996706;28;20446;-82
2022/03/05 14:32:26;;;;;;;35.83;32.93;;;;;;;;;;4997220;28;20416;-82
2022/03/05 14:34:53;;;;;;;36.17;33.27;;;;;;;;;;4997033;28;20419;-82